createdAt,value
2018-01-14T00:00:41.732Z,32.15
2018-01-14T00:03:09.271Z,35.22
2018-01-14T00:05:36.869Z,33.83
2018-01-14T00:08:04.435Z,42.33
2018-01-14T00:10:32.012Z,37.17
2018-01-14T00:12:59.575Z,31.17
2018-01-14T00:15:27.119Z,37.97
2018-01-14T00:17:54.712Z,36.20
2018-01-14T00:20:23.029Z,39.28
2018-01-14T00:22:50.600Z,32.22
2018-01-14T00:25:18.199Z,28.75
2018-01-14T00:27:46.535Z,31.58
2018-01-14T00:30:14.078Z,33.75
2018-01-14T00:32:41.662Z,33.08
2018-01-14T00:35:09.221Z,29.87
2018-01-14T00:37:36.788Z,36.75
2018-01-14T00:40:04.361Z,33.60
2018-01-14T00:42:31.917Z,35.45
2018-01-14T00:44:59.515Z,29.37
2018-01-14T00:47:27.077Z,29.92
2018-01-14T00:49:54.642Z,37.20
2018-01-14T00:52:22.237Z,36.17
2018-01-14T00:54:49.789Z,40.28
2018-01-14T00:57:17.327Z,37.90
2018-01-14T00:59:44.904Z,34.35
2018-01-14T01:02:12.455Z,32.78
2018-01-14T01:04:40.026Z,34.05
2018-01-14T01:07:07.618Z,33.40
2018-01-14T01:09:35.176Z,30.08
2018-01-14T01:12:02.743Z,34.05
2018-01-14T01:14:30.317Z,29.58
2018-01-14T01:16:58.636Z,44.03
2018-01-14T01:19:26.186Z,37.35
2018-01-14T01:21:53.765Z,40.95
2018-01-14T01:24:21.320Z,34.55
2018-01-14T01:26:49.510Z,35.40
2018-01-14T01:29:17.084Z,33.22
2018-01-14T01:31:44.622Z,37.35
2018-01-14T01:34:12.160Z,35.72
2018-01-14T01:36:39.751Z,34.25
2018-01-14T01:39:07.300Z,33.58
2018-01-14T01:41:34.863Z,35.70
2018-01-14T01:44:02.446Z,34.78
2018-01-14T01:46:29.987Z,34.55
2018-01-14T01:48:57.551Z,36.53
2018-01-14T01:51:25.105Z,39.20
2018-01-14T01:53:52.676Z,32.90
2018-01-14T01:56:20.252Z,44.75
2018-01-14T01:58:48.574Z,30.62
2018-01-14T02:01:16.162Z,32.53
2018-01-14T02:03:43.717Z,32.78
2018-01-14T02:06:11.255Z,32.78
2018-01-14T02:08:38.809Z,35.30
2018-01-14T02:11:06.366Z,42.85
2018-01-14T02:13:33.940Z,31.17
2018-01-14T02:16:01.515Z,36.65
2018-01-14T02:18:29.068Z,36.55
2018-01-14T02:20:56.663Z,32.13
2018-01-14T02:23:24.986Z,36.63
2018-01-14T02:25:52.574Z,38.40
2018-01-14T02:28:20.129Z,41.33
2018-01-14T02:30:47.685Z,35.83
2018-01-14T02:33:15.248Z,37.88
2018-01-14T02:35:42.801Z,39.55
2018-01-14T02:38:10.344Z,28.27
2018-01-14T02:40:37.931Z,30.15
2018-01-14T02:43:05.471Z,34.28
2018-01-14T02:45:33.026Z,33.90
2018-01-14T02:48:00.601Z,36.78
2018-01-14T02:50:28.144Z,31.33
2018-01-14T02:52:55.737Z,32.03
2018-01-14T02:55:23.311Z,34.55
2018-01-14T02:57:52.369Z,42.95
2018-01-14T03:00:19.941Z,28.60
2018-01-14T03:02:47.482Z,33.30
2018-01-14T03:05:15.067Z,30.23
2018-01-14T03:07:42.631Z,32.80
2018-01-14T03:10:10.177Z,25.20
2018-01-14T03:12:37.739Z,27.52
2018-01-14T03:15:05.305Z,32.25
2018-01-14T03:17:32.852Z,32.22
2018-01-14T03:20:00.428Z,31.20
2018-01-14T03:22:27.971Z,29.42
2018-01-14T03:24:55.542Z,34.53
2018-01-14T03:27:23.135Z,31.62
2018-01-14T03:29:51.462Z,30.77
2018-01-14T03:32:19.030Z,26.00
2018-01-14T03:34:46.603Z,32.50
2018-01-14T03:37:14.158Z,26.73
2018-01-14T03:39:41.712Z,33.83
2018-01-14T03:42:09.293Z,27.85
2018-01-14T03:44:36.841Z,28.25
2018-01-14T03:47:04.409Z,34.22
2018-01-14T03:49:31.999Z,30.98
2018-01-14T03:52:00.317Z,31.55
2018-01-14T03:54:27.897Z,28.85
2018-01-14T03:56:55.453Z,29.85
2018-01-14T03:59:23.015Z,30.12
2018-01-14T04:01:50.593Z,30.12
2018-01-14T04:04:18.166Z,25.05
2018-01-14T04:06:46.517Z,35.17
2018-01-14T04:09:14.069Z,28.92
2018-01-14T04:11:41.626Z,30.50
2018-01-14T04:14:09.219Z,30.80
2018-01-14T04:16:37.535Z,32.13
2018-01-14T04:19:05.100Z,31.87
2018-01-14T04:21:32.682Z,25.42
2018-01-14T04:24:00.242Z,27.08
2018-01-14T04:26:27.810Z,26.75
2018-01-14T04:28:55.355Z,29.40
2018-01-14T04:31:22.947Z,25.88
2018-01-14T04:33:51.291Z,28.50
2018-01-14T04:36:18.834Z,31.30
2018-01-14T04:38:46.396Z,28.02
2018-01-14T04:41:13.950Z,31.23
2018-01-14T04:43:41.520Z,30.67
2018-01-14T04:46:09.111Z,25.65
2018-01-14T04:48:36.665Z,31.35
2018-01-14T04:51:04.253Z,30.02
2018-01-14T04:53:32.573Z,28.48
2018-01-14T04:56:00.143Z,26.58
2018-01-14T04:58:27.713Z,33.50
2018-01-14T05:00:55.258Z,32.50
2018-01-14T05:03:22.817Z,21.37
2018-01-14T05:05:50.396Z,34.63
2018-01-14T05:08:17.970Z,30.90
2018-01-14T05:10:45.533Z,33.85
2018-01-14T05:13:13.095Z,29.33
2018-01-14T05:15:40.639Z,24.20
2018-01-14T05:18:08.174Z,22.62
2018-01-14T05:20:35.731Z,27.92
2018-01-14T05:23:03.285Z,28.67
2018-01-14T05:25:30.822Z,24.35
2018-01-14T05:27:58.383Z,25.60
2018-01-14T05:30:25.951Z,29.80
2018-01-14T05:32:53.515Z,24.20
2018-01-14T05:35:21.089Z,27.55
2018-01-14T05:37:48.641Z,22.83
2018-01-14T05:40:16.210Z,26.85
2018-01-14T05:42:43.788Z,27.95
2018-01-14T05:45:11.345Z,34.20
2018-01-14T05:47:38.896Z,22.73
2018-01-14T05:50:06.473Z,22.02
2018-01-14T05:52:34.034Z,30.65
2018-01-14T05:55:01.627Z,29.73
2018-01-14T05:57:29.949Z,27.20
2018-01-14T05:59:57.496Z,26.55
2018-01-14T06:02:25.082Z,32.90
2018-01-14T06:04:52.627Z,27.42
2018-01-14T06:07:20.196Z,29.45
2018-01-14T06:09:47.791Z,26.60
2018-01-14T06:12:16.114Z,22.30
2018-01-14T06:14:43.657Z,29.87
2018-01-14T06:17:11.229Z,32.45
2018-01-14T06:19:38.780Z,21.58
2018-01-14T06:22:06.332Z,23.77
2018-01-14T06:24:33.913Z,33.15
2018-01-14T06:27:01.467Z,24.27
2018-01-14T06:29:29.064Z,26.95
2018-01-14T06:31:56.624Z,26.27
2018-01-14T06:34:24.169Z,30.77
2018-01-14T06:36:51.808Z,28.58
2018-01-14T06:39:19.356Z,28.30
2018-01-14T06:41:46.942Z,25.25
2018-01-14T06:44:14.486Z,27.27
2018-01-14T06:46:42.047Z,29.95
2018-01-14T06:49:09.604Z,25.92
2018-01-14T06:51:37.146Z,25.70
2018-01-14T06:54:04.730Z,31.60
2018-01-14T06:56:32.318Z,25.15
2018-01-14T06:58:59.858Z,36.88
2018-01-14T07:01:27.452Z,26.33
2018-01-14T07:03:54.992Z,26.98
2018-01-14T07:06:22.599Z,24.95
2018-01-14T07:08:50.210Z,24.00
2018-01-14T07:11:17.763Z,21.50
2018-01-14T07:13:45.322Z,34.00
2018-01-14T07:16:13.033Z,24.92
2018-01-14T07:18:41.334Z,22.70
2018-01-14T07:21:08.918Z,31.20
2018-01-14T07:23:36.479Z,25.65
2018-01-14T07:26:04.017Z,21.05
2018-01-14T07:28:31.593Z,24.92
2018-01-14T07:30:59.168Z,28.77
2018-01-14T07:33:26.740Z,23.80
2018-01-14T07:35:54.327Z,26.02
2018-01-14T07:38:22.644Z,25.75
2018-01-14T07:40:50.201Z,26.12
2018-01-14T07:43:17.787Z,24.08
2018-01-14T07:45:45.351Z,22.92
2018-01-14T07:48:12.895Z,22.45
2018-01-14T07:50:40.456Z,20.73
2018-01-14T07:53:08.017Z,24.00
2018-01-14T07:55:35.611Z,22.60
2018-01-14T07:58:03.952Z,23.33
2018-01-14T08:00:31.514Z,24.98
2018-01-14T08:02:59.091Z,19.67
2018-01-14T08:05:26.672Z,25.92
2018-01-14T08:07:55.011Z,26.65
2018-01-14T08:10:22.554Z,19.58
2018-01-14T08:12:50.099Z,25.45
2018-01-14T08:15:17.695Z,19.30
2018-01-14T08:17:45.257Z,22.27
2018-01-14T08:20:12.810Z,23.95
2018-01-14T08:22:40.367Z,17.80
2018-01-14T08:25:07.913Z,28.80
2018-01-14T08:27:35.452Z,25.08
2018-01-14T08:30:03.050Z,29.00
2018-01-14T08:32:30.605Z,22.48
2018-01-14T08:34:58.181Z,23.48
2018-01-14T08:37:25.719Z,28.42
2018-01-14T08:39:53.264Z,27.67
2018-01-14T08:42:20.845Z,23.90
2018-01-14T08:44:48.415Z,19.80
2018-01-14T08:47:15.998Z,21.15
2018-01-14T08:49:44.307Z,20.40
2018-01-14T08:52:11.848Z,20.50
2018-01-14T08:54:40.202Z,21.33
2018-01-14T08:57:07.742Z,28.23
2018-01-14T08:59:35.302Z,20.92
2018-01-14T09:02:02.868Z,27.35
2018-01-14T09:04:30.430Z,21.52
2018-01-14T09:06:58.004Z,17.98
2018-01-14T09:09:25.577Z,15.75
2018-01-14T09:11:53.997Z,21.08
2018-01-14T09:14:21.564Z,20.73
2018-01-14T09:16:49.144Z,23.38
2018-01-14T09:19:16.701Z,19.77
2018-01-14T09:21:44.272Z,19.62
2018-01-14T09:24:12.237Z,23.02
2018-01-14T09:26:40.557Z,18.42
2018-01-14T09:29:08.124Z,23.10
2018-01-14T09:31:35.680Z,27.08
2018-01-14T09:34:03.234Z,17.33
2018-01-14T09:36:30.800Z,20.90
2018-01-14T09:38:58.361Z,20.67
2018-01-14T09:41:25.935Z,24.63
2018-01-14T09:43:53.517Z,20.85
2018-01-14T09:46:21.083Z,21.60
2018-01-14T09:48:48.632Z,23.87
2018-01-14T09:51:16.195Z,20.73
2018-01-14T09:53:43.750Z,24.83
2018-01-14T09:56:11.306Z,26.17
2018-01-14T09:58:38.879Z,25.45
2018-01-14T10:01:06.442Z,20.67
2018-01-14T10:03:34.007Z,19.62
2018-01-14T10:06:01.596Z,25.10
2018-01-14T10:08:29.921Z,21.52
2018-01-14T10:10:57.497Z,27.77
2018-01-14T10:13:25.053Z,22.20
2018-01-14T10:15:52.595Z,28.23
2018-01-14T10:18:20.184Z,28.92
2018-01-14T10:20:47.797Z,21.83
2018-01-14T10:23:16.113Z,24.95
2018-01-14T10:25:43.657Z,20.08
2018-01-14T10:28:11.219Z,16.35
2018-01-14T10:30:38.801Z,18.50
2018-01-14T10:33:06.375Z,18.75
2018-01-14T10:35:34.697Z,29.63
2018-01-14T10:38:02.264Z,20.73
2018-01-14T10:40:29.836Z,23.30
2018-01-14T10:42:57.420Z,29.70
2018-01-14T10:45:25.741Z,23.35
2018-01-14T10:47:53.296Z,23.08
2018-01-14T10:50:20.874Z,19.65
2018-01-14T10:52:49.311Z,27.50
2018-01-14T10:55:17.679Z,21.60
2018-01-14T10:57:45.237Z,19.15
2018-01-14T11:00:12.822Z,20.05
2018-01-14T11:02:41.157Z,16.20
2018-01-14T11:05:08.732Z,17.85
2018-01-14T11:07:36.290Z,18.25
2018-01-14T11:10:03.879Z,17.23
2018-01-14T11:12:32.201Z,22.35
2018-01-14T11:14:59.763Z,20.73
2018-01-14T11:17:27.319Z,18.80
2018-01-14T11:19:54.869Z,14.45
2018-01-14T11:22:22.449Z,16.23
2018-01-14T11:24:49.984Z,17.60
2018-01-14T11:27:17.537Z,17.25
2018-01-14T11:30:02.888Z,18.10
2018-01-14T11:32:31.210Z,18.30
2018-01-14T11:34:58.795Z,12.63
2018-01-14T11:37:26.329Z,16.55
2018-01-14T11:39:53.885Z,20.00
2018-01-14T11:42:21.461Z,22.13
2018-01-14T11:44:49.014Z,13.68
2018-01-14T11:47:16.582Z,13.60
2018-01-14T11:49:44.147Z,18.33
2018-01-14T11:52:11.710Z,15.05
2018-01-14T11:54:39.286Z,18.60
2018-01-14T11:57:06.827Z,23.48
2018-01-14T11:59:34.392Z,18.45
2018-01-14T12:02:01.979Z,22.20
2018-01-14T12:04:30.297Z,17.80
2018-01-14T12:06:57.840Z,15.25
2018-01-14T12:09:25.420Z,21.55
2018-01-14T12:11:52.954Z,16.02
2018-01-14T12:14:20.515Z,19.67
2018-01-14T12:16:48.071Z,19.67
2018-01-14T12:19:15.625Z,19.92
2018-01-14T12:21:43.206Z,17.62
2018-01-14T12:24:10.757Z,18.17
2018-01-14T12:26:38.309Z,22.87
2018-01-14T12:29:05.886Z,21.37
2018-01-14T12:31:33.451Z,14.38
2018-01-14T12:37:12.502Z,19.12
2018-01-14T12:39:40.095Z,20.10
2018-01-14T12:42:07.653Z,20.33
2018-01-14T12:44:35.197Z,18.42
2018-01-14T12:47:04.039Z,17.90
2018-01-14T12:49:31.578Z,14.23
2018-01-14T12:51:59.878Z,18.00
2018-01-14T12:54:27.462Z,16.65
2018-01-14T12:56:55.021Z,22.90
2018-01-14T12:59:22.559Z,18.70
2018-01-14T13:01:50.128Z,15.55
2018-01-14T13:04:17.690Z,23.15
2018-01-14T13:06:45.250Z,21.05
2018-01-14T13:09:12.821Z,26.92
2018-01-14T13:11:40.376Z,18.98
2018-01-14T13:14:07.934Z,21.95
2018-01-14T13:16:35.518Z,27.00
2018-01-14T13:19:03.087Z,21.08
2018-01-14T13:21:31.787Z,37.65
2018-01-14T13:23:59.402Z,33.85
2018-01-14T13:26:27.979Z,21.15
2018-01-14T13:28:56.728Z,24.45
2018-01-14T13:31:24.437Z,20.65
2018-01-14T13:33:52.931Z,19.05
2018-01-14T13:36:20.491Z,24.12
2018-01-14T13:38:48.917Z,16.65
2018-01-14T13:41:18.843Z,27.70
2018-01-14T13:43:48.416Z,17.33
2018-01-14T13:46:17.973Z,22.15
2018-01-14T13:48:46.775Z,19.08
2018-01-14T13:51:15.977Z,28.05
2018-01-14T13:53:44.762Z,26.70
2018-01-14T13:56:12.343Z,22.92
2018-01-14T13:58:40.187Z,18.92
2018-01-14T14:01:09.176Z,17.85
2018-01-14T14:03:38.162Z,19.95
2018-01-14T14:06:07.015Z,20.83
2018-01-14T14:08:35.036Z,29.08
2018-01-14T14:11:03.498Z,23.08
2018-01-14T14:13:31.074Z,22.95
2018-01-14T14:15:59.175Z,18.17
2018-01-14T14:18:26.757Z,23.30
2018-01-14T14:20:55.092Z,21.52
2018-01-14T14:23:22.669Z,19.30
2018-01-14T14:25:50.226Z,22.20
2018-01-14T14:28:17.784Z,18.80
2018-01-14T14:30:45.341Z,20.73
2018-01-14T14:33:12.905Z,21.27
2018-01-14T14:35:42.526Z,24.42
2018-01-14T14:38:10.114Z,19.00
2018-01-14T14:40:38.429Z,20.23
2018-01-14T14:43:07.269Z,22.35
2018-01-14T14:45:34.913Z,20.00
2018-01-14T14:48:02.469Z,23.10
2018-01-14T14:50:30.045Z,24.73
2018-01-14T14:52:58.370Z,24.55
2018-01-14T14:55:25.924Z,24.02
2018-01-14T14:57:53.487Z,17.30
2018-01-14T15:00:21.046Z,17.77
2018-01-14T15:02:48.605Z,20.80
2018-01-14T15:05:16.218Z,20.55
2018-01-14T15:07:43.781Z,20.75
2018-01-14T15:10:11.351Z,20.08
2018-01-14T15:12:39.697Z,18.77
2018-01-14T15:15:07.249Z,20.77
2018-01-14T15:17:34.805Z,18.80
2018-01-14T15:20:02.386Z,18.70
2018-01-14T15:22:29.930Z,16.37
2018-01-14T15:24:57.494Z,15.38
2018-01-14T15:27:25.065Z,30.88
2018-01-14T15:29:52.608Z,18.50
2018-01-14T15:32:20.165Z,16.52
2018-01-14T15:34:47.736Z,25.55
2018-01-14T15:37:15.303Z,15.27
2018-01-14T15:39:42.853Z,15.38
2018-01-14T15:42:10.417Z,17.10
2018-01-14T15:44:38.747Z,17.02
2018-01-14T15:47:06.310Z,17.52
2018-01-14T15:49:33.847Z,15.68
2018-01-14T15:52:02.175Z,18.37
2018-01-14T15:54:29.764Z,14.45
2018-01-14T15:56:58.095Z,19.67
2018-01-14T15:59:25.644Z,19.37
2018-01-14T16:01:53.236Z,17.87
2018-01-14T16:04:21.266Z,17.67
2018-01-14T16:06:48.827Z,15.63
2018-01-14T16:09:16.377Z,17.48
2018-01-14T16:11:43.947Z,21.58
2018-01-14T16:14:11.529Z,16.83
2018-01-14T16:16:39.100Z,18.67
2018-01-14T16:19:06.672Z,12.05
2018-01-14T16:21:34.247Z,17.05
2018-01-14T16:24:02.005Z,11.55
2018-01-14T16:26:29.589Z,14.70
2018-01-14T16:28:57.910Z,12.45
2018-01-14T16:31:25.468Z,13.95
2018-01-14T16:33:53.018Z,13.30
2018-01-14T16:36:20.615Z,16.52
2018-01-14T16:38:48.183Z,18.17
2018-01-14T16:41:15.751Z,13.27
2018-01-14T16:43:44.111Z,12.05
2018-01-14T16:46:11.865Z,9.75
2018-01-14T16:48:39.405Z,10.80
2018-01-14T16:51:06.995Z,18.92
2018-01-14T16:53:34.554Z,12.10
2018-01-14T16:56:02.096Z,19.17
2018-01-14T16:58:29.679Z,13.68
2018-01-14T17:00:57.238Z,11.32
2018-01-14T17:03:24.809Z,12.85
2018-01-14T17:05:52.355Z,17.20
2018-01-14T17:08:19.933Z,14.32
2018-01-14T17:10:48.276Z,19.27
2018-01-14T17:13:15.831Z,17.67
2018-01-14T17:15:43.377Z,16.37
2018-01-14T17:18:10.935Z,12.37
2018-01-14T17:20:38.474Z,15.23
2018-01-14T17:23:06.015Z,11.10
2018-01-14T17:25:34.348Z,11.70
2018-01-14T17:28:01.901Z,13.15
2018-01-14T17:30:29.438Z,23.27
2018-01-14T17:32:56.996Z,21.30
2018-01-14T17:35:24.576Z,19.83
2018-01-14T17:37:52.156Z,16.48
2018-01-14T17:40:19.704Z,14.98
2018-01-14T17:42:47.271Z,11.40
2018-01-14T17:45:14.831Z,10.70
2018-01-14T17:47:42.394Z,8.13
2018-01-14T17:50:09.963Z,12.35
2018-01-14T17:52:37.541Z,10.95
2018-01-14T17:55:05.850Z,10.65
2018-01-14T17:57:33.402Z,11.23
2018-01-14T18:00:01.000Z,10.75
2018-01-14T18:02:28.563Z,8.25
2018-01-14T18:04:56.122Z,10.77
2018-01-14T18:07:23.693Z,10.13
2018-01-14T18:09:51.249Z,10.40
2018-01-14T18:12:18.849Z,8.13
2018-01-14T18:14:47.153Z,11.30
2018-01-14T18:17:26.840Z,7.40
2018-01-14T18:19:54.379Z,8.85
2018-01-14T18:22:21.926Z,9.38
2018-01-14T18:24:49.511Z,8.05
2018-01-14T18:27:17.076Z,8.90
2018-01-14T18:29:44.640Z,8.90
2018-01-14T18:32:12.234Z,8.50
2018-01-14T18:34:39.804Z,8.98
2018-01-14T18:37:07.348Z,8.30
2018-01-14T18:39:35.684Z,11.02
2018-01-14T18:42:03.250Z,11.20
2018-01-14T18:44:30.790Z,9.00
2018-01-14T18:46:58.380Z,9.05
2018-01-14T18:49:25.943Z,7.25
2018-01-14T18:51:53.516Z,11.20
2018-01-14T18:54:21.879Z,11.90
2018-01-14T18:56:49.429Z,10.93
2018-01-14T18:59:16.985Z,11.65
2018-01-14T19:01:44.557Z,9.43
2018-01-14T19:04:12.109Z,10.68
2018-01-14T19:06:39.684Z,8.18
2018-01-14T19:09:08.031Z,12.15
2018-01-14T19:11:35.577Z,10.13
2018-01-14T19:14:03.133Z,11.07
2018-01-14T19:16:30.705Z,9.45
2018-01-14T19:18:58.240Z,9.43
2018-01-14T19:21:25.803Z,11.23
2018-01-14T19:23:53.378Z,8.88
2018-01-14T19:26:20.929Z,12.07
2018-01-14T19:28:48.504Z,8.57
2018-01-14T19:31:16.082Z,10.57
2018-01-14T19:33:43.650Z,9.43
2018-01-14T19:36:11.200Z,9.68
2018-01-14T19:38:38.759Z,8.93
2018-01-14T19:41:06.315Z,9.35
2018-01-14T19:43:33.861Z,10.38
2018-01-14T19:46:01.437Z,10.15
2018-01-14T19:48:30.100Z,9.07
2018-01-14T19:50:57.704Z,10.50
2018-01-14T19:53:26.059Z,7.45
2018-01-14T19:55:53.603Z,12.82
2018-01-14T19:58:21.142Z,10.40
2018-01-14T20:00:48.720Z,6.93
2018-01-14T20:03:16.274Z,8.52
2018-01-14T20:05:43.814Z,7.97
2018-01-14T20:08:11.372Z,7.53
2018-01-14T20:10:38.925Z,11.98
2018-01-14T20:13:06.492Z,9.20
2018-01-14T20:15:34.081Z,7.93
2018-01-14T20:18:01.619Z,8.43
2018-01-14T20:20:29.160Z,9.77
2018-01-14T20:22:56.724Z,8.30
2018-01-14T20:25:24.258Z,9.40
2018-01-14T20:27:52.583Z,7.28
2018-01-14T20:30:20.337Z,7.12
2018-01-14T20:32:47.913Z,9.05
2018-01-14T20:35:15.475Z,9.15
2018-01-14T20:37:43.063Z,10.63
2018-01-14T20:40:12.289Z,9.40
2018-01-14T20:42:39.917Z,9.25
2018-01-14T20:45:07.471Z,9.43
2018-01-14T20:47:35.021Z,8.85
2018-01-14T20:50:02.590Z,10.05
2018-01-14T20:52:30.151Z,8.50
2018-01-14T20:54:57.714Z,8.45
2018-01-14T20:57:25.256Z,9.30
2018-01-14T20:59:52.851Z,11.95
2018-01-14T21:02:21.169Z,6.72
2018-01-14T21:04:48.730Z,8.75
2018-01-14T21:07:16.323Z,10.43
2018-01-14T21:09:43.881Z,11.63
2018-01-14T21:12:11.447Z,8.98
2018-01-14T21:14:39.011Z,9.73
2018-01-14T21:17:06.571Z,9.98
2018-01-14T21:19:34.903Z,10.80
2018-01-14T21:22:02.496Z,15.88
2018-01-14T21:24:30.050Z,8.75
2018-01-14T21:26:57.592Z,7.80
2018-01-14T21:29:25.176Z,9.60
2018-01-14T21:31:52.725Z,9.90
2018-01-14T21:34:20.263Z,9.73
2018-01-14T21:36:47.821Z,8.38
2018-01-14T21:39:15.354Z,9.07
2018-01-14T21:41:42.915Z,9.85
2018-01-14T21:44:10.490Z,8.40
2018-01-14T21:46:38.041Z,7.85
2018-01-14T21:49:05.608Z,6.28
2018-01-14T21:51:33.402Z,7.00
2018-01-14T21:54:00.962Z,8.73
2018-01-14T21:56:28.513Z,11.15
2018-01-14T21:58:56.989Z,10.35
2018-01-14T22:01:24.528Z,9.48
2018-01-14T22:03:52.087Z,8.70
2018-01-14T22:06:19.629Z,8.82
2018-01-14T22:08:47.962Z,9.15
2018-01-14T22:11:15.515Z,10.82
2018-01-14T22:13:43.052Z,8.98
2018-01-14T22:16:10.645Z,9.20
2018-01-14T22:18:38.193Z,8.10
2018-01-14T22:21:05.757Z,7.47
2018-01-14T22:23:33.326Z,7.53
2018-01-14T22:26:00.864Z,9.73
2018-01-14T22:28:28.437Z,11.52
2018-01-14T22:30:55.972Z,8.07
2018-01-14T22:33:23.535Z,10.93
2018-01-14T22:35:51.968Z,7.53
2018-01-14T22:38:20.281Z,8.48
2018-01-14T22:40:47.834Z,8.77
2018-01-14T22:43:15.395Z,9.00
2018-01-14T22:45:42.945Z,12.00
2018-01-14T22:48:10.489Z,11.00
2018-01-14T22:50:38.828Z,8.70
2018-01-14T22:53:06.386Z,7.28
2018-01-14T22:55:33.942Z,10.68
2018-01-14T22:58:01.503Z,6.72
2018-01-14T23:00:29.056Z,8.80
2018-01-14T23:02:56.591Z,9.57
2018-01-14T23:05:24.143Z,11.07
2018-01-14T23:07:51.684Z,11.23
2018-01-14T23:10:20.021Z,11.85
2018-01-14T23:12:47.559Z,13.48
2018-01-14T23:15:15.100Z,14.50
2018-01-14T23:17:42.677Z,10.95
2018-01-14T23:20:10.242Z,11.90
2018-01-14T23:22:37.835Z,12.68
2018-01-14T23:25:05.388Z,13.68
2018-01-14T23:27:32.946Z,14.02
2018-01-14T23:30:00.503Z,15.63
2018-01-14T23:32:28.040Z,13.75
2018-01-14T23:34:55.614Z,13.27
2018-01-14T23:37:23.192Z,15.93
2018-01-14T23:39:50.763Z,11.98
2018-01-14T23:42:19.100Z,13.20
2018-01-14T23:44:46.677Z,16.05
2018-01-14T23:47:14.233Z,12.52
2018-01-14T23:49:42.571Z,15.02
2018-01-14T23:52:10.149Z,10.82
2018-01-14T23:54:37.715Z,13.48
2018-01-14T23:57:05.274Z,10.57
2018-01-14T23:59:32.835Z,16.15
